createdAt,value
2023-04-29T00:02:13.725Z,12.95
2023-04-29T00:05:19.413Z,12.93
2023-04-29T00:08:23.027Z,12.97
2023-04-29T00:11:25.842Z,13.04
2023-04-29T00:14:28.760Z,12.94
2023-04-29T00:17:31.566Z,12.82
2023-04-29T00:20:34.485Z,12.86
2023-04-29T00:23:37.377Z,12.83
2023-04-29T00:26:41.445Z,12.77
2023-04-29T00:29:44.700Z,12.80
2023-04-29T00:32:47.913Z,12.71
2023-04-29T00:35:51.032Z,12.66
2023-04-29T00:38:53.832Z,12.50
2023-04-29T00:41:57.074Z,12.42
2023-04-29T00:45:00.171Z,12.35
2023-04-29T00:48:03.375Z,12.40
2023-04-29T00:51:07.817Z,12.40
2023-04-29T00:54:11.852Z,12.27
2023-04-29T00:57:15.417Z,12.25
2023-04-29T01:00:19.530Z,12.16
2023-04-29T01:03:23.093Z,12.10
2023-04-29T01:06:26.202Z,12.05
2023-04-29T01:09:39.369Z,12.07
2023-04-29T01:12:47.305Z,12.05
2023-04-29T01:15:56.054Z,11.99
2023-04-29T01:19:02.892Z,12.00
2023-04-29T01:22:09.765Z,11.92
2023-04-29T01:25:13.132Z,11.91
2023-04-29T01:29:19.143Z,12.00
2023-04-29T01:32:43.100Z,12.05
2023-04-29T01:36:16.800Z,11.77
2023-04-29T01:39:41.985Z,11.68
2023-04-29T01:42:59.117Z,11.62
2023-04-29T01:46:05.728Z,11.59
2023-04-29T01:49:09.328Z,11.56
2023-04-29T01:52:13.451Z,11.54
2023-04-29T01:55:18.857Z,11.56
2023-04-29T01:58:44.739Z,11.58
2023-04-29T02:02:07.630Z,11.57
2023-04-29T02:05:13.975Z,11.52
2023-04-29T02:08:21.329Z,11.42
2023-04-29T02:11:24.504Z,11.35
2023-04-29T02:14:31.818Z,11.32
2023-04-29T02:17:34.838Z,11.29
2023-04-29T02:20:37.786Z,11.28
2023-04-29T02:23:42.791Z,11.29
2023-04-29T02:26:54.542Z,11.18
2023-04-29T02:29:57.349Z,11.06
2023-04-29T02:33:01.244Z,11.08
2023-04-29T02:36:04.400Z,10.91
2023-04-29T02:39:07.734Z,10.82
2023-04-29T02:42:10.722Z,10.82
2023-04-29T02:45:13.504Z,10.82
2023-04-29T02:48:16.668Z,10.78
2023-04-29T02:51:20.094Z,10.75
2023-04-29T02:54:23.372Z,10.78
2023-04-29T02:57:26.317Z,10.78
2023-04-29T03:00:29.192Z,10.75
2023-04-29T03:03:32.472Z,10.73
2023-04-29T03:06:35.444Z,10.76
2023-04-29T03:09:38.604Z,10.77
2023-04-29T03:12:41.402Z,10.82
2023-04-29T03:15:44.462Z,10.89
2023-04-29T03:18:47.210Z,10.89
2023-04-29T03:21:52.195Z,10.91
2023-04-29T03:24:57.266Z,10.92
2023-04-29T03:28:00.092Z,10.91
2023-04-29T03:31:03.289Z,10.91
2023-04-29T03:34:06.716Z,10.88
2023-04-29T03:37:13.163Z,10.90
2023-04-29T03:40:21.050Z,10.89
2023-04-29T03:43:24.967Z,10.91
2023-04-29T03:46:28.220Z,10.95
2023-04-29T03:49:31.187Z,10.93
2023-04-29T03:52:36.670Z,10.95
2023-04-29T03:55:45.722Z,11.08
2023-04-29T03:58:49.181Z,11.10
2023-04-29T04:01:54.600Z,11.00
2023-04-29T04:04:59.151Z,11.00
2023-04-29T04:08:02.173Z,10.92
2023-04-29T04:11:34.285Z,10.82
2023-04-29T04:14:39.187Z,10.88
2023-04-29T04:17:42.063Z,10.71
2023-04-29T04:20:45.011Z,10.70
2023-04-29T04:23:48.037Z,10.70
2023-04-29T04:26:56.045Z,10.71
2023-04-29T04:30:08.281Z,10.85
2023-04-29T04:33:11.120Z,10.76
2023-04-29T04:36:15.710Z,10.78
2023-04-29T04:39:19.169Z,10.76
2023-04-29T04:42:23.636Z,10.84
2023-04-29T04:45:31.429Z,11.00
2023-04-29T04:48:35.007Z,11.12
2023-04-29T04:51:47.502Z,11.24
2023-04-29T04:54:50.480Z,11.20
2023-04-29T04:57:58.841Z,11.69
2023-04-29T05:01:02.842Z,11.69
2023-04-29T05:04:06.147Z,11.97
2023-04-29T05:07:09.261Z,11.89
2023-04-29T05:10:33.472Z,11.82
2023-04-29T05:13:38.086Z,11.39
2023-04-29T05:16:41.015Z,11.54
2023-04-29T05:19:44.482Z,12.07
2023-04-29T05:22:47.993Z,12.45
2023-04-29T05:25:51.378Z,12.72
2023-04-29T05:28:55.530Z,12.78
2023-04-29T05:31:59.063Z,12.79
2023-04-29T05:35:02.723Z,13.26
2023-04-29T05:38:06.305Z,13.43
2023-04-29T05:41:14.368Z,13.79
2023-04-29T05:44:50.591Z,14.22
2023-04-29T05:47:53.343Z,14.27
2023-04-29T05:50:56.453Z,14.42
2023-04-29T05:54:00.514Z,14.21
2023-04-29T05:57:05.596Z,14.11
2023-04-29T06:00:09.046Z,14.53
2023-04-29T06:03:17.176Z,14.32
2023-04-29T06:06:20.650Z,15.10
2023-04-29T06:09:37.607Z,15.02
2023-04-29T06:12:40.513Z,15.03
2023-04-29T06:15:43.346Z,14.79
2023-04-29T06:18:46.133Z,14.51
2023-04-29T06:21:50.668Z,14.73
2023-04-29T06:24:53.670Z,14.24
2023-04-29T06:28:04.568Z,14.56
2023-04-29T06:31:08.440Z,14.98
2023-04-29T06:34:13.303Z,15.88
2023-04-29T06:37:40.513Z,16.65
2023-04-29T06:40:49.548Z,16.77
2023-04-29T06:44:22.004Z,16.56
2023-04-29T06:47:28.285Z,16.52
2023-04-29T06:50:52.714Z,17.15
2023-04-29T06:53:55.824Z,17.08
2023-04-29T06:56:58.644Z,18.46
2023-04-29T07:00:01.470Z,19.49
2023-04-29T07:03:04.531Z,19.88
2023-04-29T07:06:07.789Z,20.79
2023-04-29T07:09:10.715Z,21.99
2023-04-29T07:12:13.709Z,22.59
2023-04-29T07:15:16.575Z,22.20
2023-04-29T07:18:19.578Z,20.09
2023-04-29T07:21:22.457Z,21.34
2023-04-29T07:24:25.535Z,22.37
2023-04-29T07:27:28.774Z,23.13
2023-04-29T07:30:31.654Z,23.46
2023-04-29T07:33:35.786Z,24.52
2023-04-29T07:36:38.756Z,24.02
2023-04-29T07:39:42.843Z,24.63
2023-04-29T07:42:46.766Z,24.94
2023-04-29T07:45:49.678Z,24.31
2023-04-29T07:48:53.260Z,24.73
2023-04-29T07:51:56.123Z,23.98
2023-04-29T07:54:59.100Z,24.53
2023-04-29T07:58:01.929Z,24.67
2023-04-29T08:01:12.488Z,25.55
2023-04-29T08:04:16.569Z,27.06
2023-04-29T08:07:25.824Z,26.91
2023-04-29T08:10:29.372Z,25.22
2023-04-29T08:13:32.311Z,25.45
2023-04-29T08:16:35.363Z,26.04
2023-04-29T08:19:38.554Z,25.36
2023-04-29T08:22:41.586Z,25.74
2023-04-29T08:25:44.439Z,24.36
2023-04-29T08:28:47.384Z,23.87
2023-04-29T08:31:50.890Z,24.31
2023-04-29T08:34:53.944Z,23.55
2023-04-29T08:37:56.827Z,24.06
2023-04-29T08:40:59.666Z,23.97
2023-04-29T08:44:03.670Z,23.47
2023-04-29T08:47:07.411Z,24.51
2023-04-29T08:50:10.374Z,24.99
2023-04-29T08:53:14.730Z,25.17
2023-04-29T08:56:20.814Z,25.21
2023-04-29T08:59:24.302Z,22.73
2023-04-29T09:02:27.798Z,22.21
2023-04-29T09:05:31.974Z,22.68
2023-04-29T09:08:34.961Z,22.05
2023-04-29T09:11:42.410Z,21.90
2023-04-29T09:14:45.388Z,22.26
2023-04-29T09:17:49.389Z,23.39
2023-04-29T09:20:52.129Z,24.71
2023-04-29T09:23:56.419Z,25.47
2023-04-29T09:27:00.430Z,24.80
2023-04-29T09:30:03.426Z,24.15
2023-04-29T09:33:10.025Z,23.98
2023-04-29T09:36:12.954Z,25.19
2023-04-29T09:39:19.509Z,25.35
2023-04-29T09:42:25.180Z,26.51
2023-04-29T09:45:38.546Z,27.00
2023-04-29T09:49:26.416Z,27.04
2023-04-29T09:52:42.550Z,28.24
2023-04-29T09:55:54.404Z,28.05
2023-04-29T09:59:47.861Z,28.59
2023-04-29T10:02:51.884Z,28.74
2023-04-29T10:05:55.578Z,30.10
2023-04-29T10:08:58.728Z,30.66
2023-04-29T10:12:02.672Z,29.77
2023-04-29T10:15:44.228Z,29.96
2023-04-29T10:18:54.431Z,30.90
2023-04-29T10:22:00.852Z,32.74
2023-04-29T10:25:07.816Z,32.26
2023-04-29T10:28:17.062Z,32.75
2023-04-29T10:31:20.532Z,32.60
2023-04-29T10:34:24.632Z,31.15
2023-04-29T10:37:28.020Z,32.44
2023-04-29T10:40:54.401Z,32.17
2023-04-29T10:43:59.829Z,33.36
2023-04-29T10:47:21.687Z,33.35
2023-04-29T10:50:28.065Z,34.30
2023-04-29T10:53:31.002Z,34.75
2023-04-29T10:56:51.340Z,34.92
2023-04-29T10:59:54.183Z,34.51
2023-04-29T11:03:02.364Z,33.70
2023-04-29T11:06:11.754Z,34.33
2023-04-29T11:09:37.400Z,31.88
2023-04-29T11:12:40.629Z,32.66
2023-04-29T11:15:43.673Z,33.99
2023-04-29T11:19:05.199Z,33.99
2023-04-29T11:22:15.254Z,33.09
2023-04-29T11:25:19.060Z,30.95
2023-04-29T11:28:24.188Z,33.11
2023-04-29T11:31:30.817Z,34.01
2023-04-29T11:34:34.308Z,34.62
2023-04-29T11:37:37.390Z,33.62
2023-04-29T11:40:49.431Z,35.04
2023-04-29T11:43:57.785Z,33.71
2023-04-29T11:47:04.698Z,34.13
2023-04-29T11:50:10.453Z,32.87
2023-04-29T11:53:13.641Z,34.07
2023-04-29T11:56:16.604Z,33.58
2023-04-29T11:59:20.046Z,35.33
2023-04-29T12:02:24.118Z,35.19
2023-04-29T12:05:27.604Z,36.08
2023-04-29T12:08:31.264Z,35.87
2023-04-29T12:11:34.401Z,36.29
2023-04-29T12:14:38.421Z,33.10
2023-04-29T12:17:42.670Z,32.94
2023-04-29T12:20:48.303Z,33.11
2023-04-29T12:23:51.783Z,34.15
2023-04-29T12:26:56.260Z,33.91
2023-04-29T12:29:59.116Z,33.14
2023-04-29T12:33:02.850Z,33.28
2023-04-29T12:36:17.809Z,31.90
2023-04-29T12:39:21.387Z,29.36
2023-04-29T12:42:24.197Z,28.42
2023-04-29T12:45:34.596Z,27.59
2023-04-29T12:48:39.315Z,27.65
2023-04-29T12:51:42.709Z,26.56
2023-04-29T12:54:45.998Z,24.77
2023-04-29T12:57:48.801Z,25.15
2023-04-29T13:00:51.741Z,25.51
2023-04-29T13:03:54.908Z,24.42
2023-04-29T13:07:01.077Z,24.71
2023-04-29T13:10:06.509Z,25.02
2023-04-29T13:13:12.069Z,25.14
2023-04-29T13:16:14.948Z,25.30
2023-04-29T13:19:28.219Z,25.45
2023-04-29T13:22:37.678Z,28.47
2023-04-29T13:25:40.979Z,26.78
2023-04-29T13:28:44.327Z,28.02
2023-04-29T13:31:47.342Z,26.41
2023-04-29T13:34:51.683Z,27.42
2023-04-29T13:37:54.633Z,29.14
2023-04-29T13:40:57.777Z,28.15
2023-04-29T13:44:02.006Z,26.23
2023-04-29T13:47:06.499Z,26.04
2023-04-29T13:50:47.173Z,26.03
2023-04-29T13:54:20.459Z,25.91
2023-04-29T13:57:40.115Z,25.58
2023-04-29T14:03:24.354Z,23.68
2023-04-29T14:06:28.510Z,23.51
2023-04-29T14:09:31.586Z,23.44
2023-04-29T14:12:34.998Z,24.08
2023-04-29T14:15:38.046Z,24.03
2023-04-29T14:18:41.187Z,24.10
2023-04-29T14:21:44.147Z,24.61
2023-04-29T14:24:47.139Z,24.52
2023-04-29T14:27:50.032Z,24.15
2023-04-29T14:30:52.917Z,24.49
2023-04-29T14:33:56.553Z,24.44
2023-04-29T14:36:59.341Z,24.45
2023-04-29T14:40:02.155Z,24.00
2023-04-29T14:43:05.315Z,24.37
2023-04-29T14:46:08.422Z,24.56
2023-04-29T14:49:11.278Z,24.55
2023-04-29T14:52:14.517Z,24.52
2023-04-29T14:55:17.512Z,24.47
2023-04-29T14:58:20.973Z,23.34
2023-04-29T15:01:23.867Z,23.68
2023-04-29T15:04:27.749Z,23.67
2023-04-29T15:07:31.883Z,23.15
2023-04-29T15:10:35.019Z,23.09
2023-04-29T15:13:37.932Z,22.99
2023-04-29T15:16:40.927Z,22.32
2023-04-29T15:19:43.764Z,21.69
2023-04-29T15:22:47.799Z,21.80
2023-04-29T15:25:50.799Z,21.88
2023-04-29T15:28:53.961Z,21.50
2023-04-29T15:31:56.772Z,21.94
2023-04-29T15:35:00.561Z,21.34
2023-04-29T15:38:03.413Z,21.08
2023-04-29T15:41:06.960Z,21.23
2023-04-29T15:44:09.701Z,21.12
2023-04-29T15:47:12.481Z,21.38
2023-04-29T15:50:15.639Z,20.99
2023-04-29T15:53:18.391Z,21.22
2023-04-29T15:56:21.157Z,21.61
2023-04-29T15:59:24.231Z,21.22
2023-04-29T16:02:27.144Z,21.43
2023-04-29T16:05:31.762Z,21.45
2023-04-29T16:08:34.568Z,21.32
2023-04-29T16:11:37.385Z,21.18
2023-04-29T16:14:40.434Z,21.08
2023-04-29T16:17:43.302Z,21.31
2023-04-29T16:20:46.116Z,21.07
2023-04-29T16:23:49.114Z,20.81
2023-04-29T16:26:51.964Z,20.88
2023-04-29T16:29:55.968Z,20.81
2023-04-29T16:32:58.931Z,20.91
2023-04-29T16:36:03.161Z,21.09
2023-04-29T16:39:06.399Z,20.85
2023-04-29T16:42:09.545Z,20.44
2023-04-29T16:45:13.250Z,20.40
2023-04-29T16:48:16.634Z,20.75
2023-04-29T16:51:19.396Z,20.46
2023-04-29T16:54:23.345Z,20.32
2023-04-29T16:57:26.707Z,20.14
2023-04-29T17:00:29.794Z,19.98
2023-04-29T17:03:32.923Z,19.97
2023-04-29T17:06:37.331Z,19.95
2023-04-29T17:09:40.822Z,19.98
2023-04-29T17:12:44.607Z,19.84
2023-04-29T17:15:47.975Z,19.66
2023-04-29T17:18:50.812Z,19.48
2023-04-29T17:21:53.663Z,19.37
2023-04-29T17:24:56.387Z,19.24
2023-04-29T17:27:59.773Z,19.11
2023-04-29T17:31:02.638Z,18.99
2023-04-29T17:34:16.705Z,18.92
2023-04-29T17:37:25.009Z,18.80
2023-04-29T17:40:28.082Z,18.64
2023-04-29T17:43:33.394Z,18.54
2023-04-29T17:46:37.021Z,18.33
2023-04-29T17:49:39.839Z,18.22
2023-04-29T17:52:43.016Z,18.16
2023-04-29T17:55:46.377Z,17.95
2023-04-29T17:58:49.184Z,17.75
2023-04-29T18:01:52.553Z,17.56
2023-04-29T18:04:56.178Z,17.42
2023-04-29T18:07:59.015Z,17.25
2023-04-29T18:11:02.506Z,17.15
2023-04-29T18:14:05.271Z,17.03
2023-04-29T18:17:08.598Z,16.90
2023-04-29T18:20:13.050Z,16.78
2023-04-29T18:23:15.984Z,16.65
2023-04-29T18:26:19.009Z,16.52
2023-04-29T18:29:21.818Z,16.40
2023-04-29T18:32:24.634Z,16.31
2023-04-29T18:35:28.547Z,16.25
2023-04-29T18:38:31.376Z,16.12
2023-04-29T18:41:34.142Z,16.02
2023-04-29T18:44:37.096Z,16.03
2023-04-29T18:47:39.914Z,16.04
2023-04-29T18:50:43.189Z,15.97
2023-04-29T18:53:46.268Z,15.82
2023-04-29T18:56:50.247Z,15.63
2023-04-29T18:59:54.610Z,15.47
2023-04-29T19:02:57.920Z,15.37
2023-04-29T19:06:01.227Z,15.24
2023-04-29T19:09:04.418Z,15.18
2023-04-29T19:12:08.660Z,15.12
2023-04-29T19:15:12.052Z,15.05
2023-04-29T19:18:14.894Z,15.02
2023-04-29T19:21:18.589Z,14.99
2023-04-29T19:24:21.525Z,15.06
2023-04-29T19:27:24.360Z,15.07
2023-04-29T19:30:27.445Z,15.08
2023-04-29T19:33:31.099Z,15.05
2023-04-29T19:36:34.416Z,14.97
2023-04-29T19:39:37.290Z,15.04
2023-04-29T19:42:40.988Z,14.90
2023-04-29T19:45:43.896Z,14.80
2023-04-29T19:48:46.871Z,14.72
2023-04-29T19:51:51.855Z,14.56
2023-04-29T19:54:57.738Z,14.51
2023-04-29T19:58:00.823Z,14.48
2023-04-29T20:01:03.880Z,14.48
2023-04-29T20:04:07.065Z,14.43
2023-04-29T20:07:10.063Z,14.34
2023-04-29T20:10:12.950Z,14.23
2023-04-29T20:13:16.291Z,14.30
2023-04-29T20:16:19.153Z,14.24
2023-04-29T20:19:22.201Z,14.21
2023-04-29T20:22:25.165Z,14.17
2023-04-29T20:25:28.655Z,14.17
2023-04-29T20:28:31.690Z,14.09
2023-04-29T20:31:35.161Z,13.97
2023-04-29T20:34:38.463Z,13.90
2023-04-29T20:37:59.037Z,13.86
2023-04-29T20:41:37.332Z,13.77
2023-04-29T20:44:40.112Z,13.71
2023-04-29T20:47:44.129Z,13.63
2023-04-29T20:50:50.919Z,13.58
2023-04-29T20:53:53.928Z,13.54
2023-04-29T20:56:56.857Z,13.53
2023-04-29T21:00:05.297Z,13.47
2023-04-29T21:03:10.938Z,13.34
2023-04-29T21:06:13.896Z,13.20
2023-04-29T21:09:17.920Z,13.09
2023-04-29T21:12:20.837Z,12.98
2023-04-29T21:15:27.069Z,12.93
2023-04-29T21:18:30.088Z,12.84
2023-04-29T21:21:32.949Z,12.73
2023-04-29T21:24:35.795Z,12.70
2023-04-29T21:27:38.760Z,12.69
2023-04-29T21:30:41.708Z,12.63
2023-04-29T21:33:44.715Z,12.54
2023-04-29T21:36:47.536Z,12.46
2023-04-29T21:39:50.975Z,12.33
2023-04-29T21:42:55.456Z,12.25
2023-04-29T21:45:58.347Z,12.26
2023-04-29T21:49:03.355Z,12.29
2023-04-29T21:52:06.249Z,12.23
2023-04-29T21:55:09.536Z,12.23
2023-04-29T21:58:12.365Z,12.25
2023-04-29T22:01:39.528Z,12.26
2023-04-29T22:04:42.808Z,12.17
2023-04-29T22:07:46.295Z,12.04
2023-04-29T22:10:49.207Z,11.98
2023-04-29T22:13:52.130Z,11.89
2023-04-29T22:16:55.059Z,11.78
2023-04-29T22:19:58.033Z,11.65
2023-04-29T22:23:01.062Z,11.57
2023-04-29T22:26:03.857Z,11.51
2023-04-29T22:29:06.765Z,11.41
2023-04-29T22:32:09.572Z,11.34
2023-04-29T22:35:12.548Z,11.32
2023-04-29T22:38:17.835Z,11.26
2023-04-29T22:41:21.938Z,11.23
2023-04-29T22:44:26.313Z,11.15
2023-04-29T22:47:29.328Z,11.12
2023-04-29T22:50:32.135Z,11.03
2023-04-29T22:53:34.936Z,10.98
2023-04-29T22:56:37.817Z,10.93
2023-04-29T22:59:40.739Z,10.92
2023-04-29T23:02:44.181Z,10.96
2023-04-29T23:05:47.119Z,11.03
2023-04-29T23:08:49.997Z,11.02
2023-04-29T23:11:53.426Z,11.18
2023-04-29T23:14:56.862Z,11.11
2023-04-29T23:17:59.921Z,11.08
2023-04-29T23:21:02.940Z,11.04
2023-04-29T23:24:05.950Z,11.05
2023-04-29T23:27:08.806Z,11.12
2023-04-29T23:30:11.732Z,11.05
2023-04-29T23:33:15.206Z,11.05
2023-04-29T23:36:18.172Z,11.03
2023-04-29T23:39:21.132Z,11.02
2023-04-29T23:42:23.943Z,10.92
2023-04-29T23:45:27.056Z,10.85
2023-04-29T23:48:29.802Z,10.76
2023-04-29T23:51:33.154Z,10.71
2023-04-29T23:54:36.317Z,10.57
2023-04-29T23:57:39.184Z,10.54
